Wyomissing Hills, Pennsylvania
Current Conditions -  °F | °C
As of 6:54 AM on Wednesday 28 Jan 2015 (Local Time) from KRDG Reporting Station
Clear Clear  
Wind Chill:   Ceiling: Unl
Heat Index: 16°   Visibility: 10mi
Dew Point: -1°   Wind: 10mph
Humidity: 47%   Direction: 300°WNW
Pressure: 30.09"   Gusts: NA
Location:  40.3275°N, 75.9966°W
Report Text: KRDG 281154Z 30009KT 10SM CLR M09/M18 A3009 RMK AO2 SLP198 T10891183 11083 21100 53026
Loading
Personal Weather Stations






























Interactive Weather Map New forecast layout! Learn more

10-Day Weather Forecast

Advertisements
Track Severe Weather on mobile